Time,TemperatureF,DewpointF,PressureIn,WindDirection,WindDirectionDegrees,WindSpeedMPH,WindSpeedGustMPH,Humidity,HourlyPrecipIn,Conditions,Clouds,dailyrainin,SoftwareType,DateUTC
2014-02-25 00:09:00,27.9,13.0,30.12,WSW,247,0.0,-999.0,53,-99.99,,,0.00,Acu-Link.com,2014-02-25 05:09:00,
2014-02-25 00:24:00,26.8,12.8,30.12,West,270,0.0,-999.0,55,-99.99,,,0.00,Acu-Link.com,2014-02-25 05:24:00,
2014-02-25 00:39:00,25.7,13.4,30.12,SSE,157,0.0,-999.0,59,-99.99,,,0.00,Acu-Link.com,2014-02-25 05:39:00,
2014-02-25 00:54:00,24.6,13.5,30.12,WNW,292,0.0,-999.0,62,-99.99,,,0.00,Acu-Link.com,2014-02-25 05:54:00,
2014-02-25 01:09:00,24.6,13.5,30.12,WSW,247,0.0,-999.0,62,-99.99,,,0.00,Acu-Link.com,2014-02-25 06:09:00,
2014-02-25 01:25:00,25.0,13.8,30.11,West,270,0.0,-999.0,62,-99.99,,,0.00,Acu-Link.com,2014-02-25 06:25:00,
2014-02-25 01:40:00,26.2,13.1,30.10,WSW,247,5.8,-999.0,57,-99.99,,,0.00,Acu-Link.com,2014-02-25 06:40:00,
2014-02-25 01:55:00,26.6,12.6,30.09,WNW,292,2.2,-999.0,55,-99.99,,,0.00,Acu-Link.com,2014-02-25 06:55:00,
2014-02-25 02:10:00,26.1,12.5,30.09,WNW,292,0.0,-999.0,56,-99.99,,,0.00,Acu-Link.com,2014-02-25 07:10:00,
2014-02-25 02:25:00,25.5,13.2,30.10,WSW,247,0.0,-999.0,59,-99.99,,,0.00,Acu-Link.com,2014-02-25 07:25:00,
2014-02-25 02:41:00,24.4,13.3,30.09,NW,315,0.0,-999.0,62,-99.99,,,0.00,Acu-Link.com,2014-02-25 07:41:00,
2014-02-25 02:56:00,23.2,12.8,30.09,SSW,202,0.0,-999.0,64,-99.99,,,0.00,Acu-Link.com,2014-02-25 07:56:00,
2014-02-25 03:11:00,22.3,14.0,30.10,SSW,202,0.0,-999.0,70,-99.99,,,0.00,Acu-Link.com,2014-02-25 08:11:00,
2014-02-25 03:26:00,21.0,13.1,30.11,WNW,292,0.0,-999.0,71,-99.99,,,0.00,Acu-Link.com,2014-02-25 08:26:00,
2014-02-25 03:41:00,21.2,13.3,30.11,NW,315,0.0,-999.0,71,-99.99,,,0.00,Acu-Link.com,2014-02-25 08:41:00,
2014-02-25 03:57:00,21.7,15.1,30.10,SW,225,0.0,-999.0,75,-99.99,,,0.00,Acu-Link.com,2014-02-25 08:57:00,
2014-02-25 04:12:00,22.1,15.1,30.09,SE,135,0.0,-999.0,74,-99.99,,,0.00,Acu-Link.com,2014-02-25 09:12:00,
2014-02-25 04:27:00,22.3,14.6,30.10,SW,225,0.0,-999.0,72,-99.99,,,0.00,Acu-Link.com,2014-02-25 09:27:00,
2014-02-25 04:42:00,22.3,14.3,30.10,WSW,247,0.0,-999.0,71,-99.99,,,0.00,Acu-Link.com,2014-02-25 09:42:00,
2014-02-25 04:57:00,22.5,14.5,30.10,SSE,157,0.0,-999.0,71,-99.99,,,0.00,Acu-Link.com,2014-02-25 09:57:00,
2014-02-25 05:13:00,23.0,14.7,30.10,SW,225,0.0,-999.0,70,-99.99,,,0.00,Acu-Link.com,2014-02-25 10:13:00,
2014-02-25 05:28:00,23.5,14.9,30.10,SW,225,0.0,-999.0,69,-99.99,,,0.00,Acu-Link.com,2014-02-25 10:28:00,
2014-02-25 05:43:00,23.7,15.4,30.10,SW,225,0.0,-999.0,70,-99.99,,,0.00,Acu-Link.com,2014-02-25 10:43:00,
2014-02-25 05:58:00,24.3,15.6,30.11,SSE,157,0.0,-999.0,69,-99.99,,,0.00,Acu-Link.com,2014-02-25 10:58:00,
2014-02-25 06:13:00,24.3,15.6,30.10,SSE,157,0.0,-999.0,69,-99.99,,,0.00,Acu-Link.com,2014-02-25 11:13:00,
2014-02-25 06:29:00,24.6,15.3,30.09,SSE,157,0.0,-999.0,67,-99.99,,,0.00,Acu-Link.com,2014-02-25 11:29:00,
2014-02-25 06:44:00,24.8,15.8,30.09,SW,225,0.0,-999.0,68,-99.99,,,0.00,Acu-Link.com,2014-02-25 11:44:00,
2014-02-25 06:59:00,25.2,16.4,30.10,WNW,292,0.0,-999.0,69,-99.99,,,0.00,Acu-Link.com,2014-02-25 11:59:00,
2014-02-25 07:14:00,25.7,16.3,30.11,SW,225,0.0,-999.0,67,-99.99,,,0.00,Acu-Link.com,2014-02-25 12:14:00,
2014-02-25 07:30:00,26.8,17.0,30.11,West,270,0.0,-999.0,66,-99.99,,,0.00,Acu-Link.com,2014-02-25 12:30:00,
2014-02-25 07:45:00,27.9,18.3,30.11,WSW,247,1.1,-999.0,67,-99.99,,,0.00,Acu-Link.com,2014-02-25 12:45:00,
2014-02-25 08:00:00,28.9,18.7,30.12,WSW,247,1.6,-999.0,65,-99.99,,,0.00,Acu-Link.com,2014-02-25 13:00:00,
2014-02-25 08:15:00,29.3,18.7,30.13,West,270,3.8,-999.0,64,-99.99,,,0.00,Acu-Link.com,2014-02-25 13:15:00,
2014-02-25 08:30:00,30.2,17.2,30.13,WSW,247,0.0,-999.0,58,-99.99,,,0.00,Acu-Link.com,2014-02-25 13:30:00,
2014-02-25 08:46:00,30.6,16.3,30.13,West,270,2.2,-999.0,55,-99.99,,,0.00,Acu-Link.com,2014-02-25 13:46:00,
2014-02-25 09:01:00,30.7,16.9,30.12,WSW,247,2.2,-999.0,56,-99.99,,,0.00,Acu-Link.com,2014-02-25 14:01:00,
2014-02-25 09:16:00,31.5,17.6,30.12,North,0,5.1,-999.0,56,-99.99,,,0.00,Acu-Link.com,2014-02-25 14:16:00,
2014-02-25 09:31:00,32.4,18.9,30.10,WSW,247,3.1,-999.0,57,-99.99,,,0.00,Acu-Link.com,2014-02-25 14:31:00,
2014-02-25 09:46:00,33.1,19.1,30.10,SW,225,0.0,-999.0,56,-99.99,,,0.00,Acu-Link.com,2014-02-25 14:46:00,
2014-02-25 10:02:00,34.2,20.1,30.09,WNW,292,2.7,-999.0,56,-99.99,,,0.00,Acu-Link.com,2014-02-25 15:02:00,
2014-02-25 10:17:00,33.4,20.3,30.09,West,270,3.8,-999.0,58,-99.99,,,0.00,Acu-Link.com,2014-02-25 15:17:00,
2014-02-25 10:32:00,33.4,20.7,30.09,West,270,2.2,-999.0,59,-99.99,,,0.00,Acu-Link.com,2014-02-25 15:32:00,
2014-02-25 10:47:00,32.0,23.0,30.09,WSW,247,2.2,-999.0,69,-99.99,,,0.00,Acu-Link.com,2014-02-25 15:47:00,
2014-02-25 11:02:00,31.1,24.7,30.09,WNW,292,2.2,-999.0,77,-99.99,,,0.00,Acu-Link.com,2014-02-25 16:02:00,
2014-02-25 11:18:00,31.1,25.4,30.08,NNW,337,4.3,-999.0,79,-99.99,,,0.00,Acu-Link.com,2014-02-25 16:18:00,
2014-02-25 11:33:00,31.1,25.4,30.08,WSW,247,2.7,-999.0,79,-99.99,,,0.00,Acu-Link.com,2014-02-25 16:33:00,
2014-02-25 11:48:00,31.1,26.0,30.08,NW,315,3.1,-999.0,81,-99.99,,,0.00,Acu-Link.com,2014-02-25 16:48:00,
2014-02-25 12:03:00,30.9,26.4,30.07,WSW,247,0.0,-999.0,83,-99.99,,,0.00,Acu-Link.com,2014-02-25 17:03:00,
2014-02-25 12:19:00,31.6,26.2,30.07,NW,315,6.7,-999.0,80,-99.99,,,0.00,Acu-Link.com,2014-02-25 17:19:00,
2014-02-25 12:34:00,32.2,27.0,30.06,West,270,4.7,-999.0,81,-99.99,,,0.00,Acu-Link.com,2014-02-25 17:34:00,
2014-02-25 12:49:00,32.4,26.3,30.04,WNW,292,3.8,-999.0,78,-99.99,,,0.00,Acu-Link.com,2014-02-25 17:49:00,
2014-02-25 13:04:00,32.4,26.3,30.03,WNW,292,2.7,-999.0,78,-99.99,,,0.00,Acu-Link.com,2014-02-25 18:04:00,
2014-02-25 13:19:00,32.9,26.2,30.02,SW,225,4.7,-999.0,76,-99.99,,,0.00,Acu-Link.com,2014-02-25 18:19:00,
2014-02-25 13:35:00,32.7,26.3,30.02,WNW,292,2.7,-999.0,77,-99.99,,,0.00,Acu-Link.com,2014-02-25 18:35:00,
2014-02-25 13:50:00,32.7,26.3,30.01,NNE,22,4.7,-999.0,77,-99.99,,,0.00,Acu-Link.com,2014-02-25 18:50:00,
2014-02-25 14:05:00,33.1,26.7,30.00,WSW,247,5.1,-999.0,77,-99.99,,,0.00,Acu-Link.com,2014-02-25 19:05:00,
2014-02-25 14:20:00,33.4,27.0,30.00,WNW,292,3.1,-999.0,77,-99.99,,,0.00,Acu-Link.com,2014-02-25 19:20:00,
2014-02-25 14:35:00,32.5,26.5,29.99,NW,315,2.7,-999.0,78,-99.99,,,0.00,Acu-Link.com,2014-02-25 19:35:00,
2014-02-25 14:51:00,31.8,26.1,29.99,NW,315,4.7,-999.0,79,-99.99,,,0.00,Acu-Link.com,2014-02-25 19:51:00,
2014-02-25 15:06:00,31.5,26.0,29.99,North,0,2.2,-999.0,80,-99.99,,,0.00,Acu-Link.com,2014-02-25 20:06:00,
2014-02-25 15:21:00,32.2,27.0,29.98,SSW,202,2.2,-999.0,81,-99.99,,,0.00,Acu-Link.com,2014-02-25 20:21:00,
2014-02-25 15:36:00,31.8,26.7,29.98,West,270,1.1,-999.0,81,-99.99,,,0.00,Acu-Link.com,2014-02-25 20:36:00,
2014-02-25 15:51:00,31.3,26.7,29.98,SW,225,3.1,-999.0,83,-99.99,,,0.00,Acu-Link.com,2014-02-25 20:51:00,
2014-02-25 16:07:00,31.3,27.0,29.98,SSW,202,0.0,-999.0,84,-99.99,,,0.00,Acu-Link.com,2014-02-25 21:07:00,
2014-02-25 16:22:00,33.4,28.5,29.98,WNW,292,2.7,-999.0,82,-99.99,,,0.00,Acu-Link.com,2014-02-25 21:22:00,
2014-02-25 16:37:00,35.4,28.3,29.97,WNW,292,2.7,-999.0,75,-99.99,,,0.00,Acu-Link.com,2014-02-25 21:37:00,
2014-02-25 16:52:00,35.6,27.1,29.97,WSW,247,3.1,-999.0,71,-99.99,,,0.01,Acu-Link.com,2014-02-25 21:52:00,
2014-02-25 17:08:00,33.6,25.9,29.97,West,270,1.1,-999.0,73,-99.99,,,0.01,Acu-Link.com,2014-02-25 22:08:00,
2014-02-25 17:23:00,32.4,25.0,29.97,WNW,292,1.1,-999.0,74,-99.99,,,0.01,Acu-Link.com,2014-02-25 22:23:00,
2014-02-25 17:38:00,32.0,25.0,29.98,NNE,22,0.0,-999.0,75,-99.99,,,0.01,Acu-Link.com,2014-02-25 22:38:00,
2014-02-25 17:53:00,31.5,24.8,29.99,West,270,1.6,-999.0,76,-99.99,,,0.01,Acu-Link.com,2014-02-25 22:53:00,
2014-02-25 18:08:00,30.6,23.3,29.99,WNW,292,2.7,-999.0,74,-99.99,,,0.01,Acu-Link.com,2014-02-25 23:08:00,
2014-02-25 18:24:00,29.8,22.3,29.99,West,270,0.0,-999.0,73,-99.99,,,0.01,Acu-Link.com,2014-02-25 23:24:00,
2014-02-25 18:39:00,28.9,22.0,29.99,WSW,247,0.0,-999.0,75,-99.99,,,0.01,Acu-Link.com,2014-02-25 23:39:00,
2014-02-25 18:54:00,28.6,22.9,30.00,West,270,0.0,-999.0,79,-99.99,,,0.01,Acu-Link.com,2014-02-25 23:54:00,
2014-02-25 19:09:00,27.9,22.5,30.00,WSW,247,1.1,-999.0,80,-99.99,,,0.01,Acu-Link.com,2014-02-26 00:09:00,
2014-02-25 19:24:00,27.0,21.6,30.00,South,180,0.0,-999.0,80,-99.99,,,0.01,Acu-Link.com,2014-02-26 00:24:00,
2014-02-25 19:40:00,26.1,21.0,30.01,West,270,0.0,-999.0,81,-99.99,,,0.01,Acu-Link.com,2014-02-26 00:40:00,
2014-02-25 19:55:00,25.2,20.2,30.01,SSE,157,0.0,-999.0,81,-99.99,,,0.01,Acu-Link.com,2014-02-26 00:55:00,
2014-02-25 20:10:00,24.3,19.3,30.02,SSW,202,0.0,-999.0,81,-99.99,,,0.01,Acu-Link.com,2014-02-26 01:10:00,
2014-02-25 20:25:00,23.5,19.4,30.01,West,270,0.0,-999.0,84,-99.99,,,0.01,Acu-Link.com,2014-02-26 01:25:00,
2014-02-25 20:40:00,23.0,19.2,30.02,WSW,247,0.0,-999.0,85,-99.99,,,0.01,Acu-Link.com,2014-02-26 01:40:00,
2014-02-25 20:56:00,22.6,19.1,30.03,SW,225,0.0,-999.0,86,-99.99,,,0.01,Acu-Link.com,2014-02-26 01:56:00,
2014-02-25 21:11:00,22.1,18.3,30.02,South,180,0.0,-999.0,85,-99.99,,,0.01,Acu-Link.com,2014-02-26 02:11:00,
2014-02-25 21:26:00,21.2,17.7,30.03,WNW,292,0.0,-999.0,86,-99.99,,,0.01,Acu-Link.com,2014-02-26 02:26:00,
2014-02-25 21:41:00,21.2,17.9,30.04,SSW,202,0.0,-999.0,87,-99.99,,,0.01,Acu-Link.com,2014-02-26 02:41:00,
2014-02-25 21:57:00,20.7,17.1,30.04,South,180,0.0,-999.0,86,-99.99,,,0.01,Acu-Link.com,2014-02-26 02:57:00,
2014-02-25 22:12:00,19.9,16.4,30.03,ESE,112,0.0,-999.0,86,-99.99,,,0.01,Acu-Link.com,2014-02-26 03:12:00,
2014-02-25 22:27:00,19.6,16.1,30.03,WSW,247,0.0,-999.0,86,-99.99,,,0.01,Acu-Link.com,2014-02-26 03:27:00,
2014-02-25 22:42:00,19.4,16.4,30.02,SSE,157,0.0,-999.0,88,-99.99,,,0.01,Acu-Link.com,2014-02-26 03:42:00,
2014-02-25 22:57:00,19.0,15.8,30.01,WNW,292,0.0,-999.0,87,-99.99,,,0.01,Acu-Link.com,2014-02-26 03:57:00,
2014-02-25 23:13:00,19.0,16.1,30.01,WSW,247,0.0,-999.0,88,-99.99,,,0.01,Acu-Link.com,2014-02-26 04:13:00,
2014-02-25 23:28:00,19.0,16.1,30.00,SSW,202,0.0,-999.0,88,-99.99,,,0.01,Acu-Link.com,2014-02-26 04:28:00,
2014-02-25 23:43:00,18.7,15.5,30.00,SSE,157,0.0,-999.0,87,-99.99,,,0.01,Acu-Link.com,2014-02-26 04:43:00,
2014-02-25 23:58:00,18.3,15.1,30.00,WSW,247,0.0,-999.0,87,-99.99,,,0.01,Acu-Link.com,2014-02-26 04:58:00,